createdAt,value
2019-04-04T00:00:31.508Z,46.14
2019-04-04T00:01:36.780Z,46.19
2019-04-04T00:02:40.446Z,46.10
2019-04-04T00:03:44.195Z,46.28
2019-04-04T00:04:47.912Z,46.23
2019-04-04T00:05:51.561Z,46.02
2019-04-04T00:06:57.829Z,45.97
2019-04-04T00:08:00.689Z,45.96
2019-04-04T00:09:08.095Z,46.03
2019-04-04T00:10:13.329Z,45.90
2019-04-04T00:11:17.282Z,45.84
2019-04-04T00:12:21.047Z,46.11
2019-04-04T00:13:24.624Z,46.40
2019-04-04T00:14:28.375Z,46.06
2019-04-04T00:15:32.093Z,46.06
2019-04-04T00:16:35.832Z,46.30
2019-04-04T00:17:39.863Z,46.34
2019-04-04T00:18:43.557Z,46.38
2019-04-04T00:19:47.305Z,46.38
2019-04-04T00:20:51.010Z,46.37
2019-04-04T00:21:54.672Z,46.26
2019-04-04T00:22:58.403Z,46.12
2019-04-04T00:24:02.142Z,46.00
2019-04-04T00:25:09.672Z,45.98
2019-04-04T00:26:12.016Z,46.10
2019-04-04T00:27:15.643Z,46.04
2019-04-04T00:28:19.365Z,45.86
2019-04-04T00:29:23.050Z,45.70
2019-04-04T00:30:26.750Z,45.76
2019-04-04T00:31:30.486Z,45.79
2019-04-04T00:32:34.220Z,45.79
2019-04-04T00:33:37.932Z,45.81
2019-04-04T00:34:41.633Z,45.84
2019-04-04T00:35:45.331Z,46.23
2019-04-04T00:36:49.050Z,46.76
2019-04-04T00:37:52.794Z,47.02
2019-04-04T00:38:56.480Z,47.15
2019-04-04T00:40:00.219Z,47.06
2019-04-04T00:41:04.194Z,47.02
2019-04-04T00:42:07.898Z,47.07
2019-04-04T00:43:11.963Z,47.44
2019-04-04T00:44:15.667Z,47.60
2019-04-04T00:45:19.385Z,48.38
2019-04-04T00:46:23.163Z,48.40
2019-04-04T00:47:26.821Z,48.41
2019-04-04T00:48:32.204Z,48.43
2019-04-04T00:49:36.220Z,48.76
2019-04-04T00:50:39.980Z,48.83
2019-04-04T00:51:43.657Z,49.02
2019-04-04T00:52:47.296Z,49.00
2019-04-04T00:53:50.997Z,48.91
2019-04-04T00:54:54.664Z,49.01
2019-04-04T00:55:58.296Z,48.98
2019-04-04T00:57:01.982Z,49.14
2019-04-04T00:58:05.615Z,49.26
2019-04-04T00:59:09.320Z,49.03
2019-04-04T01:00:13.514Z,49.10
2019-04-04T01:01:17.220Z,49.07
2019-04-04T01:02:20.925Z,49.26
2019-04-04T01:03:24.647Z,49.28
2019-04-04T01:04:30.743Z,49.38
2019-04-04T01:05:33.895Z,49.93
2019-04-04T01:06:37.613Z,50.75
2019-04-04T01:07:41.283Z,50.75
2019-04-04T01:08:44.956Z,50.98
2019-04-04T01:09:48.591Z,50.65
2019-04-04T01:10:52.264Z,51.10
2019-04-04T01:11:56.737Z,51.10
2019-04-04T01:13:00.431Z,51.21
2019-04-04T01:14:04.146Z,51.34
2019-04-04T01:15:08.158Z,51.34
2019-04-04T01:16:11.865Z,51.19
2019-04-04T01:17:15.596Z,51.00
2019-04-04T01:18:19.348Z,50.90
2019-04-04T01:19:23.778Z,50.86
2019-04-04T01:20:27.922Z,50.83
2019-04-04T01:21:31.622Z,50.83
2019-04-04T01:22:35.342Z,51.11
2019-04-04T01:23:41.287Z,50.86
2019-04-04T01:24:44.466Z,51.00
2019-04-04T01:25:48.198Z,50.80
2019-04-04T01:26:51.936Z,50.80
2019-04-04T01:27:55.670Z,51.34
2019-04-04T01:28:59.346Z,51.29
2019-04-04T01:30:03.414Z,51.05
2019-04-04T01:31:07.148Z,51.30
2019-04-04T01:32:30.159Z,51.09
2019-04-04T01:33:33.875Z,51.09
2019-04-04T01:34:37.551Z,51.39
2019-04-04T01:35:41.207Z,51.43
2019-04-04T01:36:44.851Z,51.83
2019-04-04T01:37:48.589Z,51.74
2019-04-04T01:38:52.255Z,52.06
2019-04-04T01:39:55.949Z,52.00
2019-04-04T01:40:59.587Z,51.87
2019-04-04T01:42:03.131Z,51.71
2019-04-04T01:43:08.814Z,51.71
2019-04-04T01:44:12.214Z,51.93
2019-04-04T01:45:15.975Z,51.93
2019-04-04T01:46:19.645Z,51.83
2019-04-04T01:47:23.283Z,51.82
2019-04-04T01:48:26.845Z,51.51
2019-04-04T01:49:30.406Z,51.93
2019-04-04T01:50:34.084Z,51.93
2019-04-04T01:51:37.747Z,52.12
2019-04-04T01:52:41.306Z,52.20
2019-04-04T01:53:45.352Z,52.20
2019-04-04T01:54:49.084Z,52.08
2019-04-04T01:55:52.753Z,52.30
2019-04-04T01:56:56.357Z,52.60
2019-04-04T01:57:59.985Z,52.28
2019-04-04T01:59:03.712Z,52.48
2019-04-04T02:00:10.425Z,52.26
2019-04-04T02:01:16.243Z,52.26
2019-04-04T02:02:20.182Z,52.33
2019-04-04T02:03:23.856Z,52.33
2019-04-04T02:04:27.481Z,52.11
2019-04-04T02:05:31.135Z,51.99
2019-04-04T02:06:35.147Z,51.93
2019-04-04T02:07:38.817Z,51.94
2019-04-04T02:08:42.482Z,51.94
2019-04-04T02:09:46.476Z,52.11
2019-04-04T02:10:50.463Z,52.03
2019-04-04T02:11:54.151Z,52.03
2019-04-04T02:12:58.128Z,51.77
2019-04-04T02:14:01.762Z,52.02
2019-04-04T02:15:08.446Z,52.01
2019-04-04T02:16:12.089Z,51.85
2019-04-04T02:17:15.782Z,51.85
2019-04-04T02:18:19.420Z,52.46
2019-04-04T02:19:24.823Z,52.46
2019-04-04T02:20:28.465Z,52.09
2019-04-04T02:21:32.076Z,51.85
2019-04-04T02:22:35.767Z,51.85
2019-04-04T02:23:39.412Z,52.17
2019-04-04T02:24:43.099Z,52.28
2019-04-04T02:25:46.749Z,52.39
2019-04-04T02:26:50.412Z,52.31
2019-04-04T02:27:54.113Z,52.42
2019-04-04T02:28:57.763Z,52.42
2019-04-04T02:30:01.416Z,52.24
2019-04-04T02:31:06.540Z,52.59
2019-04-04T02:32:11.900Z,52.59
2019-04-04T02:33:15.568Z,52.42
2019-04-04T02:34:19.239Z,52.34
2019-04-04T02:35:22.872Z,52.63
2019-04-04T02:36:26.554Z,52.63
2019-04-04T02:37:30.197Z,51.76
2019-04-04T02:38:33.874Z,51.76
2019-04-04T02:39:37.530Z,52.27
2019-04-04T02:40:42.249Z,51.91
2019-04-04T02:41:48.483Z,52.43
2019-04-04T02:42:53.951Z,52.85
2019-04-04T02:43:59.408Z,52.68
2019-04-04T02:45:05.137Z,52.79
2019-04-04T02:46:11.201Z,52.55
2019-04-04T02:47:16.803Z,52.91
2019-04-04T02:48:23.162Z,52.91
2019-04-04T02:49:28.108Z,53.03
2019-04-04T02:50:29.209Z,53.04
2019-04-04T02:51:32.848Z,52.90
2019-04-04T02:52:36.515Z,52.67
2019-04-04T02:53:40.529Z,52.67
2019-04-04T02:54:44.239Z,52.76
2019-04-04T02:55:47.960Z,52.92
2019-04-04T02:56:51.609Z,52.15
2019-04-04T02:57:55.249Z,52.15
2019-04-04T02:58:58.886Z,52.33
2019-04-04T03:00:02.678Z,52.33
2019-04-04T03:01:06.286Z,52.71
2019-04-04T03:02:10.306Z,52.90
2019-04-04T03:03:13.938Z,52.90
2019-04-04T03:04:17.590Z,52.73
2019-04-04T03:05:21.217Z,52.31
2019-04-04T03:06:25.168Z,52.31
2019-04-04T03:07:30.837Z,52.85
2019-04-04T03:08:36.765Z,53.98
2019-04-04T03:09:42.507Z,55.27
2019-04-04T03:10:47.715Z,54.95
2019-04-04T03:11:53.538Z,54.53
2019-04-04T03:12:58.684Z,54.30
2019-04-04T03:14:03.746Z,53.95
2019-04-04T03:15:10.971Z,53.84
2019-04-04T03:16:14.629Z,53.74
2019-04-04T03:17:18.275Z,53.79
2019-04-04T03:18:21.908Z,53.54
2019-04-04T03:19:25.567Z,53.54
2019-04-04T03:20:29.181Z,53.75
2019-04-04T03:21:32.884Z,53.63
2019-04-04T03:22:36.628Z,53.84
2019-04-04T03:23:40.250Z,54.10
2019-04-04T03:24:45.123Z,54.16
2019-04-04T03:25:49.144Z,54.16
2019-04-04T03:26:53.636Z,53.98
2019-04-04T03:27:58.417Z,53.98
2019-04-04T03:29:05.631Z,54.25
2019-04-04T03:30:13.461Z,54.34
2019-04-04T03:31:13.956Z,54.35
2019-04-04T03:32:17.825Z,54.28
2019-04-04T03:33:28.814Z,54.29
2019-04-04T03:34:26.799Z,54.25
2019-04-04T03:35:30.353Z,54.18
2019-04-04T03:36:34.063Z,54.19
2019-04-04T03:37:40.451Z,54.09
2019-04-04T03:38:46.063Z,54.03
2019-04-04T03:39:51.957Z,53.94
2019-04-04T03:40:57.254Z,54.34
2019-04-04T03:41:59.428Z,54.32
2019-04-04T03:43:03.080Z,54.68
2019-04-04T03:44:06.708Z,54.77
2019-04-04T03:45:10.566Z,54.46
2019-04-04T03:46:14.248Z,54.46
2019-04-04T03:47:17.921Z,54.44
2019-04-04T03:48:21.550Z,54.67
2019-04-04T03:49:25.183Z,55.06
2019-04-04T03:50:30.223Z,55.19
2019-04-04T03:51:37.129Z,55.19
2019-04-04T03:52:43.123Z,55.44
2019-04-04T03:53:50.266Z,55.44
2019-04-04T03:54:56.356Z,57.94
2019-04-04T03:56:01.198Z,58.03
2019-04-04T03:57:04.937Z,57.78
2019-04-04T03:58:08.657Z,58.37
2019-04-04T03:59:12.317Z,58.95
2019-04-04T04:00:30.232Z,59.35
2019-04-04T04:01:34.377Z,59.30
2019-04-04T04:02:38.072Z,59.46
2019-04-04T04:03:41.641Z,60.49
2019-04-04T04:04:45.836Z,60.58
2019-04-04T04:05:49.631Z,60.11
2019-04-04T04:06:53.293Z,59.93
2019-04-04T04:07:57.060Z,60.86
2019-04-04T04:09:01.070Z,60.94
2019-04-04T04:10:06.578Z,60.41
2019-04-04T04:11:10.387Z,61.11
2019-04-04T04:12:14.059Z,60.90
2019-04-04T04:13:17.690Z,61.84
2019-04-04T04:14:22.781Z,60.75
2019-04-04T04:15:30.297Z,60.74
2019-04-04T04:16:35.921Z,60.87
2019-04-04T04:17:38.285Z,60.77
2019-04-04T04:18:41.838Z,60.75
2019-04-04T04:19:45.511Z,60.63
2019-04-04T04:20:49.083Z,60.65
2019-04-04T04:21:52.812Z,61.22
2019-04-04T04:22:56.417Z,61.30
2019-04-04T04:24:00.054Z,61.33
2019-04-04T04:25:04.301Z,60.92
2019-04-04T04:26:09.503Z,60.56
2019-04-04T04:27:15.522Z,60.69
2019-04-04T04:28:20.153Z,60.65
2019-04-04T04:29:24.175Z,60.63
2019-04-04T04:30:27.801Z,60.54
2019-04-04T04:31:31.424Z,60.72
2019-04-04T04:32:37.204Z,60.76
2019-04-04T04:33:40.476Z,61.15
2019-04-04T04:34:44.164Z,61.31
2019-04-04T04:35:47.811Z,61.41
2019-04-04T04:36:51.784Z,61.97
2019-04-04T04:37:55.410Z,62.18
2019-04-04T04:39:00.226Z,62.41
2019-04-04T04:40:04.501Z,62.29
2019-04-04T04:41:08.210Z,62.42
2019-04-04T04:42:12.143Z,62.22
2019-04-04T04:43:16.088Z,62.29
2019-04-04T04:44:19.809Z,62.40
2019-04-04T04:45:23.452Z,62.69
2019-04-04T04:46:27.135Z,62.69
2019-04-04T04:47:30.804Z,62.42
2019-04-04T04:48:35.965Z,62.31
2019-04-04T04:49:39.571Z,62.14
2019-04-04T04:50:43.120Z,62.58
2019-04-04T04:51:53.718Z,62.04
2019-04-04T04:52:57.365Z,61.35
2019-04-04T04:54:01.082Z,61.19
2019-04-04T04:55:05.329Z,60.73
2019-04-04T04:56:08.968Z,60.50
2019-04-04T04:57:28.149Z,61.64
2019-04-04T04:58:18.135Z,60.86
2019-04-04T04:59:21.777Z,60.97
2019-04-04T05:00:27.707Z,61.25
2019-04-04T05:01:30.885Z,61.07
2019-04-04T05:02:34.475Z,61.05
2019-04-04T05:03:38.127Z,61.04
2019-04-04T05:04:41.864Z,60.93
2019-04-04T05:05:45.559Z,60.77
2019-04-04T05:06:49.207Z,60.61
2019-04-04T05:07:54.879Z,60.37
2019-04-04T05:08:58.433Z,60.46
2019-04-04T05:10:02.093Z,60.61
2019-04-04T05:11:05.847Z,60.45
2019-04-04T05:12:09.489Z,60.57
2019-04-04T05:13:13.181Z,61.20
2019-04-04T05:14:16.855Z,62.78
2019-04-04T05:15:21.367Z,61.48
2019-04-04T05:16:25.133Z,61.61
2019-04-04T05:17:28.771Z,62.07
2019-04-04T05:18:32.553Z,61.63
2019-04-04T05:19:36.203Z,61.15
2019-04-04T05:20:39.866Z,60.99
2019-04-04T05:21:43.496Z,61.06
2019-04-04T05:22:47.164Z,61.06
2019-04-04T05:23:50.879Z,61.06
2019-04-04T05:25:07.418Z,61.21
2019-04-04T05:26:02.133Z,61.63
2019-04-04T05:27:05.995Z,61.71
2019-04-04T05:28:10.737Z,61.58
2019-04-04T05:29:15.195Z,61.79
2019-04-04T05:30:20.349Z,61.53
2019-04-04T05:31:24.203Z,61.53
2019-04-04T05:32:27.914Z,61.71
2019-04-04T05:33:31.776Z,61.47
2019-04-04T05:34:35.398Z,61.60
2019-04-04T05:35:39.380Z,61.69
2019-04-04T05:36:43.029Z,61.78
2019-04-04T05:37:46.727Z,61.83
2019-04-04T05:38:50.674Z,61.50
2019-04-04T05:39:55.416Z,61.57
2019-04-04T05:40:59.276Z,62.19
2019-04-04T05:42:02.897Z,62.01
2019-04-04T05:43:06.553Z,61.74
2019-04-04T05:44:10.412Z,61.99
2019-04-04T05:45:15.122Z,62.12
2019-04-04T05:46:19.633Z,62.09
2019-04-04T05:47:23.937Z,61.86
2019-04-04T05:48:29.190Z,61.63
2019-04-04T05:49:33.447Z,61.91
2019-04-04T05:50:37.148Z,62.38
2019-04-04T05:51:40.901Z,62.12
2019-04-04T05:52:44.523Z,62.07
2019-04-04T05:53:48.276Z,61.80
2019-04-04T05:54:51.946Z,61.85
2019-04-04T05:55:55.643Z,61.92
2019-04-04T05:56:59.192Z,61.77
2019-04-04T05:58:02.851Z,61.82
2019-04-04T05:59:06.527Z,61.45
2019-04-04T06:00:12.230Z,61.71
2019-04-04T06:01:17.656Z,61.58
2019-04-04T06:02:21.359Z,61.60
2019-04-04T06:03:24.998Z,61.61
2019-04-04T06:04:28.669Z,61.49
2019-04-04T06:05:32.315Z,60.94
2019-04-04T06:06:36.004Z,60.19
2019-04-04T06:07:39.638Z,59.92
2019-04-04T06:08:43.495Z,60.10
2019-04-04T06:09:47.165Z,59.80
2019-04-04T06:10:50.899Z,59.85
2019-04-04T06:11:54.882Z,59.70
2019-04-04T06:12:58.454Z,59.56
2019-04-04T06:14:02.302Z,58.89
2019-04-04T06:15:07.226Z,58.90
2019-04-04T06:16:10.893Z,58.95
2019-04-04T06:17:15.024Z,58.93
2019-04-04T06:18:18.595Z,59.07
2019-04-04T06:19:22.262Z,59.01
2019-04-04T06:20:26.002Z,58.39
2019-04-04T06:21:29.694Z,58.92
2019-04-04T06:22:33.369Z,58.88
2019-04-04T06:23:37.102Z,58.68
2019-04-04T06:24:40.724Z,58.18
2019-04-04T06:25:44.502Z,58.26
2019-04-04T06:26:48.581Z,58.72
2019-04-04T06:27:52.239Z,58.25
2019-04-04T06:28:56.283Z,57.83
2019-04-04T06:29:59.917Z,57.94
2019-04-04T06:31:03.620Z,58.28
2019-04-04T06:32:08.219Z,57.96
2019-04-04T06:33:11.910Z,57.89
2019-04-04T06:34:15.661Z,57.10
2019-04-04T06:35:19.305Z,57.02
2019-04-04T06:36:22.965Z,56.61
2019-04-04T06:37:28.100Z,56.66
2019-04-04T06:38:31.877Z,57.02
2019-04-04T06:39:35.507Z,57.09
2019-04-04T06:40:40.788Z,56.75
2019-04-04T06:41:44.441Z,56.58
2019-04-04T06:42:48.073Z,56.70
2019-04-04T06:43:51.670Z,56.69
2019-04-04T06:44:55.305Z,56.24
2019-04-04T06:46:01.764Z,55.63
2019-04-04T06:47:05.439Z,55.88
2019-04-04T06:48:09.068Z,55.51
2019-04-04T06:49:12.767Z,54.83
2019-04-04T06:50:16.398Z,54.95
2019-04-04T06:51:20.051Z,55.25
2019-04-04T06:52:23.705Z,55.16
2019-04-04T06:53:27.378Z,54.97
2019-04-04T06:54:31.054Z,55.34
2019-04-04T06:55:39.763Z,55.20
2019-04-04T06:56:40.064Z,55.54
2019-04-04T06:57:43.722Z,55.48
2019-04-04T06:58:47.362Z,55.26
2019-04-04T06:59:51.368Z,55.23
2019-04-04T07:00:55.092Z,55.35
2019-04-04T07:01:58.739Z,55.28
2019-04-04T07:03:02.397Z,55.03
2019-04-04T07:04:06.062Z,55.03
2019-04-04T07:05:10.935Z,54.67
2019-04-04T07:06:14.673Z,54.25
2019-04-04T07:07:18.311Z,54.21
2019-04-04T07:08:21.973Z,54.22
2019-04-04T07:09:25.629Z,54.38
2019-04-04T07:10:29.653Z,54.32
2019-04-04T07:11:35.191Z,54.28
2019-04-04T07:12:39.535Z,54.01
2019-04-04T07:13:43.228Z,53.73
2019-04-04T07:14:49.529Z,53.50
2019-04-04T07:16:06.025Z,53.61
2019-04-04T07:16:58.728Z,53.41
2019-04-04T07:18:02.512Z,53.41
2019-04-04T07:19:08.123Z,53.76
2019-04-04T07:20:12.321Z,53.55
2019-04-04T07:21:16.009Z,53.47
2019-04-04T07:22:20.578Z,53.44
2019-04-04T07:23:27.423Z,53.44
2019-04-04T07:24:31.155Z,53.54
2019-04-04T07:25:35.948Z,53.37
2019-04-04T07:26:39.769Z,53.54
2019-04-04T07:27:45.362Z,53.54
2019-04-04T07:28:51.974Z,53.55
2019-04-04T07:29:56.569Z,53.59
2019-04-04T07:31:01.751Z,53.49
2019-04-04T07:32:07.286Z,53.78
2019-04-04T07:33:12.630Z,52.77
2019-04-04T07:34:16.176Z,52.77
2019-04-04T07:35:21.167Z,52.94
2019-04-04T07:36:24.906Z,52.94
2019-04-04T07:37:28.601Z,53.24
2019-04-04T07:38:34.951Z,52.95
2019-04-04T07:39:37.592Z,52.95
2019-04-04T07:40:41.232Z,53.14
2019-04-04T07:41:45.151Z,53.14
2019-04-04T07:42:48.981Z,51.84
2019-04-04T07:43:52.625Z,51.84
2019-04-04T07:44:56.282Z,52.14
2019-04-04T07:46:05.206Z,52.14
2019-04-04T07:47:05.738Z,51.56
2019-04-04T07:48:12.105Z,51.56
2019-04-04T07:49:14.808Z,51.31
2019-04-04T07:50:18.459Z,51.31
2019-04-04T07:51:22.159Z,51.11
2019-04-04T07:52:25.795Z,51.11
2019-04-04T07:53:29.552Z,50.66
2019-04-04T07:54:33.223Z,50.66
2019-04-04T07:55:36.887Z,49.45
2019-04-04T07:56:40.593Z,49.80
2019-04-04T07:57:44.248Z,49.00
2019-04-04T07:58:47.896Z,49.00
2019-04-04T07:59:51.531Z,48.99
2019-04-04T08:00:55.211Z,49.21
2019-04-04T08:01:58.880Z,48.74
2019-04-04T08:03:02.517Z,48.43
2019-04-04T08:04:06.767Z,47.98
2019-04-04T08:05:13.208Z,48.06
2019-04-04T08:06:16.145Z,48.07
2019-04-04T08:07:19.850Z,47.02
2019-04-04T08:08:23.481Z,46.67
2019-04-04T08:09:27.191Z,46.65
2019-04-04T08:10:30.841Z,46.01
2019-04-04T08:11:34.471Z,45.90
2019-04-04T08:12:38.129Z,45.49
2019-04-04T08:13:41.831Z,45.53
2019-04-04T08:14:45.654Z,45.50
2019-04-04T08:15:49.322Z,45.03
2019-04-04T08:16:53.052Z,44.87
2019-04-04T08:17:56.746Z,44.61
2019-04-04T08:19:00.346Z,44.07
2019-04-04T08:20:05.815Z,43.49
2019-04-04T08:21:09.465Z,43.49
2019-04-04T08:22:13.167Z,43.24
2019-04-04T08:23:16.894Z,43.17
2019-04-04T08:24:20.547Z,43.21
2019-04-04T08:25:24.161Z,43.05
2019-04-04T08:26:27.827Z,43.05
2019-04-04T08:27:31.568Z,42.59
2019-04-04T08:28:35.329Z,41.92
2019-04-04T08:29:39.030Z,41.92
2019-04-04T08:30:42.730Z,42.35
2019-04-04T08:31:46.395Z,41.90
2019-04-04T08:32:49.960Z,41.61
2019-04-04T08:33:53.689Z,41.38
2019-04-04T08:34:57.372Z,41.54
2019-04-04T08:36:06.138Z,41.32
2019-04-04T08:37:06.420Z,40.31
2019-04-04T08:38:10.044Z,40.06
2019-04-04T08:39:15.165Z,40.01
2019-04-04T08:40:18.835Z,39.75
2019-04-04T08:41:22.497Z,39.48
2019-04-04T08:42:26.211Z,38.91
2019-04-04T08:43:29.810Z,37.93
2019-04-04T08:44:33.515Z,37.51
2019-04-04T08:45:37.182Z,36.79
2019-04-04T08:46:41.223Z,36.50
2019-04-04T08:47:44.841Z,35.82
2019-04-04T08:48:48.981Z,35.44
2019-04-04T08:49:52.831Z,34.99
2019-04-04T08:50:56.548Z,34.73
2019-04-04T08:52:00.177Z,34.10
2019-04-04T08:53:03.871Z,33.68
2019-04-04T08:54:07.529Z,33.07
2019-04-04T08:55:11.360Z,32.78
2019-04-04T08:56:15.390Z,32.02
2019-04-04T08:57:19.038Z,31.17
2019-04-04T08:58:22.681Z,30.88
2019-04-04T08:59:26.322Z,31.90
2019-04-04T09:00:30.381Z,30.19
2019-04-04T09:01:34.116Z,29.55
2019-04-04T09:02:37.759Z,29.44
2019-04-04T09:03:41.429Z,28.96
2019-04-04T09:04:45.139Z,28.89
2019-04-04T09:05:48.866Z,29.69
2019-04-04T09:06:52.576Z,28.59
2019-04-04T09:07:56.207Z,28.41
2019-04-04T09:08:59.906Z,28.07
2019-04-04T09:10:04.352Z,27.71
2019-04-04T09:11:08.013Z,28.27
2019-04-04T09:12:11.684Z,27.59
2019-04-04T09:13:16.837Z,27.63
2019-04-04T09:14:20.593Z,27.39
2019-04-04T09:15:24.261Z,27.50
2019-04-04T09:16:29.184Z,27.48
2019-04-04T09:17:32.928Z,27.33
2019-04-04T09:18:37.696Z,27.20
2019-04-04T09:19:41.890Z,26.91
2019-04-04T09:20:45.515Z,27.23
2019-04-04T09:21:49.224Z,26.99
2019-04-04T09:22:52.861Z,27.19
2019-04-04T09:23:56.524Z,27.21
2019-04-04T09:25:01.333Z,26.61
2019-04-04T09:26:06.316Z,26.62
2019-04-04T09:27:10.296Z,26.95
2019-04-04T09:28:14.304Z,26.63
2019-04-04T09:29:17.992Z,26.60
2019-04-04T09:30:22.755Z,26.60
2019-04-04T09:31:26.480Z,26.57
2019-04-04T09:32:30.125Z,26.25
2019-04-04T09:33:33.788Z,26.05
2019-04-04T09:34:37.499Z,25.74
2019-04-04T09:35:41.248Z,25.78
2019-04-04T09:36:44.891Z,26.40
2019-04-04T09:37:48.568Z,26.49
2019-04-04T09:38:52.241Z,26.28
2019-04-04T09:39:56.311Z,25.72
2019-04-04T09:41:00.007Z,25.45
2019-04-04T09:42:03.815Z,25.50
2019-04-04T09:43:07.554Z,25.64
2019-04-04T09:44:11.188Z,25.68
2019-04-04T09:45:14.854Z,25.75
2019-04-04T09:46:18.689Z,26.06
2019-04-04T09:47:22.329Z,25.78
2019-04-04T09:48:26.068Z,25.63
2019-04-04T09:49:29.807Z,24.99
2019-04-04T09:50:33.435Z,24.53
2019-04-04T09:51:37.212Z,24.68
2019-04-04T09:52:40.953Z,24.72
2019-04-04T09:53:52.855Z,24.95
2019-04-04T09:54:50.271Z,24.61
2019-04-04T09:55:53.950Z,25.38
2019-04-04T09:56:57.739Z,25.10
2019-04-04T09:58:01.429Z,25.36
2019-04-04T09:59:05.205Z,25.27
2019-04-04T10:00:11.885Z,24.89
2019-04-04T10:01:15.686Z,24.98
2019-04-04T10:02:20.214Z,24.85
2019-04-04T10:03:23.864Z,24.98
2019-04-04T10:04:27.582Z,25.17
2019-04-04T10:05:31.518Z,24.32
2019-04-04T10:06:35.232Z,24.28
2019-04-04T10:07:39.009Z,24.59
2019-04-04T10:08:42.688Z,24.19
2019-04-04T10:09:46.350Z,24.89
2019-04-04T10:10:51.555Z,24.69
2019-04-04T10:11:56.667Z,24.70
2019-04-04T10:13:04.527Z,24.84
2019-04-04T10:14:08.296Z,25.97
2019-04-04T10:15:12.521Z,25.49
2019-04-04T10:16:16.237Z,25.77
2019-04-04T10:17:19.887Z,25.28
2019-04-04T10:18:23.692Z,25.50
2019-04-04T10:19:27.401Z,25.91
2019-04-04T10:20:31.138Z,26.11
2019-04-04T10:21:34.902Z,26.46
2019-04-04T10:22:38.708Z,25.59
2019-04-04T10:23:42.482Z,25.87
2019-04-04T10:24:46.188Z,25.23
2019-04-04T10:25:49.974Z,25.56
2019-04-04T10:26:53.664Z,25.08
2019-04-04T10:27:57.333Z,24.95
2019-04-04T10:29:01.164Z,24.30
2019-04-04T10:30:07.290Z,24.48
2019-04-04T10:31:10.942Z,23.95
2019-04-04T10:32:14.609Z,23.91
2019-04-04T10:33:18.237Z,24.02
2019-04-04T10:34:21.853Z,23.66
2019-04-04T10:35:25.506Z,23.62
2019-04-04T10:36:29.173Z,23.25
2019-04-04T10:37:32.811Z,22.97
2019-04-04T10:38:36.475Z,23.02
2019-04-04T10:39:40.149Z,22.86
2019-04-04T10:40:43.848Z,22.50
2019-04-04T10:41:47.410Z,22.68
2019-04-04T10:42:51.133Z,23.12
2019-04-04T10:43:54.893Z,23.04
2019-04-04T10:44:58.564Z,23.66
2019-04-04T10:46:02.303Z,23.27
2019-04-04T10:47:06.749Z,22.98
2019-04-04T10:48:10.321Z,22.81
2019-04-04T10:49:14.074Z,22.81
2019-04-04T10:50:17.879Z,22.64
2019-04-04T10:51:21.483Z,22.37
2019-04-04T10:52:25.160Z,22.03
2019-04-04T10:53:28.867Z,21.78
2019-04-04T10:54:32.502Z,21.68
2019-04-04T10:55:36.150Z,21.56
2019-04-04T10:56:39.846Z,21.30
2019-04-04T10:57:43.483Z,21.04
2019-04-04T10:58:47.118Z,20.93
2019-04-04T10:59:54.571Z,21.00
2019-04-04T11:00:56.608Z,20.87
2019-04-04T11:02:00.950Z,21.25
2019-04-04T11:03:04.803Z,20.83
2019-04-04T11:04:08.434Z,20.56
2019-04-04T11:05:12.695Z,20.97
2019-04-04T11:06:16.411Z,21.46
2019-04-04T11:07:20.061Z,22.77
2019-04-04T11:08:23.695Z,23.00
2019-04-04T11:09:27.339Z,23.50
2019-04-04T11:10:31.049Z,24.33
2019-04-04T11:11:35.047Z,25.01
2019-04-04T11:12:38.686Z,25.16
2019-04-04T11:13:42.427Z,25.20
2019-04-04T11:14:46.129Z,25.28
2019-04-04T11:15:49.796Z,25.77
2019-04-04T11:16:53.439Z,26.25
2019-04-04T11:17:57.161Z,26.86
2019-04-04T11:19:00.833Z,26.37
2019-04-04T11:20:06.483Z,26.51
2019-04-04T11:21:10.531Z,26.37
2019-04-04T11:22:14.160Z,26.77
2019-04-04T11:23:17.742Z,26.71
2019-04-04T11:24:21.307Z,26.79
2019-04-04T11:25:24.984Z,26.99
2019-04-04T11:26:28.677Z,26.72
2019-04-04T11:27:32.323Z,26.27
2019-04-04T11:28:41.882Z,26.17
2019-04-04T11:29:45.661Z,26.46
2019-04-04T11:30:49.337Z,24.94
2019-04-04T11:31:53.012Z,24.09
2019-04-04T11:32:56.662Z,22.72
2019-04-04T11:34:00.174Z,22.24
2019-04-04T11:35:04.628Z,21.75
2019-04-04T11:36:08.279Z,21.73
2019-04-04T11:37:11.986Z,21.50
2019-04-04T11:38:15.713Z,21.15
2019-04-04T11:39:19.349Z,20.68
2019-04-04T11:40:23.041Z,20.40
2019-04-04T11:41:26.713Z,20.84
2019-04-04T11:42:30.407Z,21.22
2019-04-04T11:43:34.030Z,21.20
2019-04-04T11:44:37.795Z,21.42
2019-04-04T11:45:41.458Z,21.60
2019-04-04T11:46:45.109Z,21.95
2019-04-04T11:47:48.860Z,22.48
2019-04-04T11:48:52.490Z,22.57
2019-04-04T11:49:56.198Z,22.71
2019-04-04T11:50:59.904Z,22.89
2019-04-04T11:52:03.543Z,23.47
2019-04-04T11:53:07.228Z,24.15
2019-04-04T11:54:11.006Z,24.34
2019-04-04T11:55:14.680Z,24.87
2019-04-04T11:56:18.323Z,25.12
2019-04-04T11:57:23.920Z,25.38
2019-04-04T11:58:27.599Z,25.58
2019-04-04T11:59:31.319Z,25.63
2019-04-04T12:00:36.602Z,26.44
2019-04-04T12:01:41.922Z,26.83
2019-04-04T12:02:45.662Z,27.43
2019-04-04T12:03:49.355Z,27.56
2019-04-04T12:04:53.327Z,27.45
2019-04-04T12:05:57.046Z,28.03
2019-04-04T12:07:00.712Z,28.10
2019-04-04T12:08:04.428Z,28.58
2019-04-04T12:09:08.557Z,28.80
2019-04-04T12:10:12.687Z,28.63
2019-04-04T12:11:16.360Z,28.54
2019-04-04T12:12:20.103Z,28.39
2019-04-04T12:13:23.756Z,27.97
2019-04-04T12:14:27.513Z,27.63
2019-04-04T12:15:31.256Z,27.39
2019-04-04T12:16:35.001Z,27.90
2019-04-04T12:17:38.714Z,28.11
2019-04-04T12:18:42.393Z,28.50
2019-04-04T12:19:46.134Z,28.54
2019-04-04T12:20:49.874Z,28.88
2019-04-04T12:21:53.579Z,28.92
2019-04-04T12:22:57.326Z,29.28
2019-04-04T12:24:01.043Z,29.16
2019-04-04T12:25:06.144Z,29.42
2019-04-04T12:26:10.167Z,29.34
2019-04-04T12:27:13.875Z,29.39
2019-04-04T12:28:17.545Z,29.34
2019-04-04T12:29:21.240Z,29.34
2019-04-04T12:30:24.986Z,29.32
2019-04-04T12:31:28.719Z,29.45
2019-04-04T12:32:32.458Z,28.68
2019-04-04T12:33:36.120Z,28.24
2019-04-04T12:34:39.812Z,28.65
2019-04-04T12:35:43.578Z,28.35
2019-04-04T12:36:47.258Z,28.29
2019-04-04T12:37:50.974Z,28.32
2019-04-04T12:38:54.725Z,28.46
2019-04-04T12:39:58.396Z,28.33
2019-04-04T12:41:02.128Z,28.64
2019-04-04T12:42:05.860Z,28.61
2019-04-04T12:43:09.504Z,28.32
2019-04-04T12:44:13.229Z,28.26
2019-04-04T12:45:17.054Z,28.75
2019-04-04T12:46:20.748Z,28.98
2019-04-04T12:47:24.455Z,29.38
2019-04-04T12:48:28.090Z,29.10
2019-04-04T12:49:31.727Z,29.14
2019-04-04T12:50:35.410Z,28.97
2019-04-04T12:51:39.075Z,29.00
2019-04-04T12:52:42.728Z,28.61
2019-04-04T12:53:46.371Z,28.59
2019-04-04T12:54:50.026Z,28.68
2019-04-04T12:55:54.342Z,28.46
2019-04-04T12:56:58.114Z,28.28
2019-04-04T12:58:01.768Z,28.60
2019-04-04T12:59:05.449Z,28.06
2019-04-04T13:00:10.420Z,26.43
2019-04-04T13:01:14.027Z,26.18
2019-04-04T13:02:17.742Z,25.59
2019-04-04T13:03:22.596Z,24.63
2019-04-04T13:04:31.487Z,23.61
2019-04-04T13:05:31.726Z,23.21
2019-04-04T13:06:35.395Z,22.80
2019-04-04T13:07:39.136Z,22.48
2019-04-04T13:08:42.804Z,22.28
2019-04-04T13:09:46.537Z,21.92
2019-04-04T13:10:50.295Z,22.07
2019-04-04T13:11:54.051Z,22.31
2019-04-04T13:12:57.798Z,22.20
2019-04-04T13:14:01.414Z,22.38
2019-04-04T13:15:10.353Z,22.42
2019-04-04T13:16:14.045Z,22.66
2019-04-04T13:17:17.720Z,23.44
2019-04-04T13:18:21.282Z,23.55
2019-04-04T13:19:24.878Z,23.21
2019-04-04T13:20:28.548Z,22.54
2019-04-04T13:21:32.236Z,22.81
2019-04-04T13:22:36.839Z,22.33
2019-04-04T13:23:40.500Z,22.64
2019-04-04T13:24:44.078Z,22.54
2019-04-04T13:25:47.757Z,22.90
2019-04-04T13:26:51.441Z,22.61
2019-04-04T13:27:55.094Z,22.86
2019-04-04T13:28:58.663Z,23.20
2019-04-04T13:30:02.317Z,23.77
2019-04-04T13:31:05.963Z,24.00
2019-04-04T13:32:09.635Z,24.17
2019-04-04T13:33:13.286Z,24.41
2019-04-04T13:34:16.914Z,24.44
2019-04-04T13:35:20.538Z,24.83
2019-04-04T13:36:24.248Z,25.06
2019-04-04T13:37:27.956Z,25.31
2019-04-04T13:38:31.625Z,25.43
2019-04-04T13:39:35.302Z,25.14
2019-04-04T13:40:45.429Z,25.31
2019-04-04T13:41:44.300Z,25.31
2019-04-04T13:42:48.007Z,25.76
2019-04-04T13:43:54.373Z,25.67
2019-04-04T13:44:58.031Z,25.50